sensor_id;sensor_type;location;lat;lon;timestamp;P1;durP1;ratioP1;P2;durP2;ratioP2
13147;SDS011;6639;50.956;4.242;2023-03-15T00:01:01;7.18;;;4.53;;
13147;SDS011;6639;50.956;4.242;2023-03-15T00:03:29;7.40;;;4.72;;
13147;SDS011;6639;50.956;4.242;2023-03-15T00:06:01;7.20;;;4.15;;
13147;SDS011;6639;50.956;4.242;2023-03-15T00:08:28;5.85;;;4.65;;
13147;SDS011;6639;50.956;4.242;2023-03-15T00:10:57;9.23;;;4.60;;
13147;SDS011;6639;50.956;4.242;2023-03-15T00:13:25;7.07;;;4.32;;
13147;SDS011;6639;50.956;4.242;2023-03-15T00:15:54;8.13;;;5.20;;
13147;SDS011;6639;50.956;4.242;2023-03-15T00:18:24;9.68;;;5.13;;
13147;SDS011;6639;50.956;4.242;2023-03-15T00:20:51;6.38;;;5.10;;
13147;SDS011;6639;50.956;4.242;2023-03-15T00:23:18;10.07;;;6.40;;
13147;SDS011;6639;50.956;4.242;2023-03-15T00:25:46;8.32;;;6.43;;
13147;SDS011;6639;50.956;4.242;2023-03-15T00:28:14;9.88;;;6.18;;
13147;SDS011;6639;50.956;4.242;2023-03-15T00:30:42;6.68;;;5.93;;
13147;SDS011;6639;50.956;4.242;2023-03-15T00:33:09;8.70;;;5.90;;
13147;SDS011;6639;50.956;4.242;2023-03-15T00:35:39;8.30;;;5.70;;
13147;SDS011;6639;50.956;4.242;2023-03-15T00:38:07;10.60;;;5.70;;
13147;SDS011;6639;50.956;4.242;2023-03-15T00:40:36;6.25;;;5.28;;
13147;SDS011;6639;50.956;4.242;2023-03-15T00:43:03;7.70;;;5.18;;
13147;SDS011;6639;50.956;4.242;2023-03-15T00:45:30;9.38;;;4.80;;
13147;SDS011;6639;50.956;4.242;2023-03-15T00:47:57;6.45;;;4.32;;
13147;SDS011;6639;50.956;4.242;2023-03-15T00:50:24;8.23;;;4.25;;
13147;SDS011;6639;50.956;4.242;2023-03-15T00:52:53;11.00;;;4.30;;
13147;SDS011;6639;50.956;4.242;2023-03-15T00:55:20;6.93;;;4.00;;
13147;SDS011;6639;50.956;4.242;2023-03-15T00:57:47;11.52;;;4.22;;
13147;SDS011;6639;50.956;4.242;2023-03-15T01:00:14;5.47;;;4.05;;
13147;SDS011;6639;50.956;4.242;2023-03-15T01:02:47;9.13;;;3.85;;
13147;SDS011;6639;50.956;4.242;2023-03-15T01:05:14;5.57;;;3.40;;
13147;SDS011;6639;50.956;4.242;2023-03-15T01:07:41;7.68;;;3.47;;
13147;SDS011;6639;50.956;4.242;2023-03-15T01:10:11;5.68;;;3.53;;
13147;SDS011;6639;50.956;4.242;2023-03-15T01:12:39;7.57;;;3.50;;
13147;SDS011;6639;50.956;4.242;2023-03-15T01:15:07;6.90;;;3.58;;
13147;SDS011;6639;50.956;4.242;2023-03-15T01:17:37;6.60;;;3.42;;
13147;SDS011;6639;50.956;4.242;2023-03-15T01:20:04;8.70;;;4.15;;
13147;SDS011;6639;50.956;4.242;2023-03-15T01:22:32;4.85;;;3.00;;
13147;SDS011;6639;50.956;4.242;2023-03-15T01:24:59;5.13;;;2.72;;
13147;SDS011;6639;50.956;4.242;2023-03-15T01:27:27;3.65;;;2.55;;
13147;SDS011;6639;50.956;4.242;2023-03-15T01:29:54;3.78;;;2.20;;
13147;SDS011;6639;50.956;4.242;2023-03-15T01:32:21;3.55;;;2.10;;
13147;SDS011;6639;50.956;4.242;2023-03-15T01:34:48;3.60;;;2.10;;
13147;SDS011;6639;50.956;4.242;2023-03-15T01:37:15;3.08;;;1.95;;
13147;SDS011;6639;50.956;4.242;2023-03-15T01:39:42;4.88;;;2.17;;
13147;SDS011;6639;50.956;4.242;2023-03-15T01:42:09;4.28;;;1.83;;
13147;SDS011;6639;50.956;4.242;2023-03-15T01:44:54;3.13;;;1.90;;
13147;SDS011;6639;50.956;4.242;2023-03-15T01:47:24;2.80;;;1.92;;
13147;SDS011;6639;50.956;4.242;2023-03-15T01:49:52;3.00;;;1.77;;
13147;SDS011;6639;50.956;4.242;2023-03-15T01:52:23;3.88;;;1.90;;
13147;SDS011;6639;50.956;4.242;2023-03-15T01:54:55;3.28;;;2.22;;
13147;SDS011;6639;50.956;4.242;2023-03-15T01:57:26;3.13;;;2.05;;
13147;SDS011;6639;50.956;4.242;2023-03-15T01:59:58;4.68;;;2.15;;
13147;SDS011;6639;50.956;4.242;2023-03-15T02:02:32;4.00;;;2.30;;
13147;SDS011;6639;50.956;4.242;2023-03-15T02:05:00;2.67;;;2.05;;
13147;SDS011;6639;50.956;4.242;2023-03-15T02:07:34;3.47;;;2.05;;
13147;SDS011;6639;50.956;4.242;2023-03-15T02:10:05;3.05;;;2.60;;
13147;SDS011;6639;50.956;4.242;2023-03-15T02:12:35;2.90;;;2.10;;
13147;SDS011;6639;50.956;4.242;2023-03-15T02:15:08;2.92;;;1.98;;
13147;SDS011;6639;50.956;4.242;2023-03-15T02:17:37;2.78;;;1.92;;
13147;SDS011;6639;50.956;4.242;2023-03-15T02:20:08;3.17;;;2.13;;
13147;SDS011;6639;50.956;4.242;2023-03-15T02:22:46;3.10;;;2.03;;
13147;SDS011;6639;50.956;4.242;2023-03-15T02:25:20;4.63;;;2.10;;
13147;SDS011;6639;50.956;4.242;2023-03-15T02:27:54;2.85;;;2.05;;
13147;SDS011;6639;50.956;4.242;2023-03-15T02:30:22;3.30;;;1.65;;
13147;SDS011;6639;50.956;4.242;2023-03-15T02:32:49;3.15;;;2.55;;
13147;SDS011;6639;50.956;4.242;2023-03-15T02:35:21;3.00;;;1.90;;
13147;SDS011;6639;50.956;4.242;2023-03-15T02:37:49;4.15;;;2.30;;
13147;SDS011;6639;50.956;4.242;2023-03-15T02:40:17;4.38;;;1.80;;
13147;SDS011;6639;50.956;4.242;2023-03-15T02:42:45;2.63;;;2.35;;
13147;SDS011;6639;50.956;4.242;2023-03-15T02:45:15;8.75;;;2.13;;
13147;SDS011;6639;50.956;4.242;2023-03-15T02:47:43;5.60;;;2.20;;
13147;SDS011;6639;50.956;4.242;2023-03-15T02:50:11;5.40;;;2.28;;
13147;SDS011;6639;50.956;4.242;2023-03-15T02:52:38;3.83;;;2.05;;
13147;SDS011;6639;50.956;4.242;2023-03-15T02:55:06;5.72;;;2.55;;
13147;SDS011;6639;50.956;4.242;2023-03-15T02:57:33;2.90;;;2.17;;
13147;SDS011;6639;50.956;4.242;2023-03-15T03:00:00;3.05;;;2.33;;
13147;SDS011;6639;50.956;4.242;2023-03-15T03:02:37;2.80;;;2.22;;
13147;SDS011;6639;50.956;4.242;2023-03-15T03:05:05;3.47;;;2.60;;
13147;SDS011;6639;50.956;4.242;2023-03-15T03:07:32;4.82;;;2.92;;
13147;SDS011;6639;50.956;4.242;2023-03-15T03:10:00;4.25;;;2.47;;
13147;SDS011;6639;50.956;4.242;2023-03-15T03:12:27;5.00;;;2.40;;
13147;SDS011;6639;50.956;4.242;2023-03-15T03:14:54;3.35;;;2.50;;
13147;SDS011;6639;50.956;4.242;2023-03-15T03:17:21;4.05;;;3.10;;
13147;SDS011;6639;50.956;4.242;2023-03-15T03:19:50;5.65;;;2.83;;
13147;SDS011;6639;50.956;4.242;2023-03-15T03:22:16;5.78;;;2.80;;
13147;SDS011;6639;50.956;4.242;2023-03-15T03:24:44;3.10;;;2.30;;
13147;SDS011;6639;50.956;4.242;2023-03-15T03:27:11;5.57;;;2.83;;
13147;SDS011;6639;50.956;4.242;2023-03-15T03:29:40;3.90;;;2.55;;
13147;SDS011;6639;50.956;4.242;2023-03-15T03:32:07;4.70;;;2.97;;
13147;SDS011;6639;50.956;4.242;2023-03-15T03:34:35;4.55;;;2.42;;
13147;SDS011;6639;50.956;4.242;2023-03-15T03:37:03;7.70;;;2.83;;
13147;SDS011;6639;50.956;4.242;2023-03-15T03:39:30;5.03;;;2.60;;
13147;SDS011;6639;50.956;4.242;2023-03-15T03:41:57;7.20;;;3.00;;
13147;SDS011;6639;50.956;4.242;2023-03-15T03:44:24;6.35;;;2.30;;
13147;SDS011;6639;50.956;4.242;2023-03-15T03:46:51;7.38;;;3.55;;
13147;SDS011;6639;50.956;4.242;2023-03-15T03:49:18;4.38;;;2.70;;
13147;SDS011;6639;50.956;4.242;2023-03-15T03:51:45;7.18;;;2.90;;
13147;SDS011;6639;50.956;4.242;2023-03-15T03:54:13;6.72;;;3.40;;
13147;SDS011;6639;50.956;4.242;2023-03-15T03:56:40;6.78;;;3.08;;
13147;SDS011;6639;50.956;4.242;2023-03-15T03:59:07;6.00;;;3.35;;
13147;SDS011;6639;50.956;4.242;2023-03-15T04:01:34;6.30;;;3.60;;
13147;SDS011;6639;50.956;4.242;2023-03-15T04:04:01;4.32;;;3.08;;
13147;SDS011;6639;50.956;4.242;2023-03-15T04:06:28;5.53;;;2.95;;
13147;SDS011;6639;50.956;4.242;2023-03-15T04:08:56;8.05;;;3.35;;
13147;SDS011;6639;50.956;4.242;2023-03-15T04:11:24;6.43;;;3.33;;
13147;SDS011;6639;50.956;4.242;2023-03-15T04:13:51;4.65;;;3.15;;
13147;SDS011;6639;50.956;4.242;2023-03-15T04:16:18;5.53;;;3.60;;
13147;SDS011;6639;50.956;4.242;2023-03-15T04:18:45;5.57;;;3.47;;
13147;SDS011;6639;50.956;4.242;2023-03-15T04:21:12;4.65;;;3.13;;
13147;SDS011;6639;50.956;4.242;2023-03-15T04:23:40;4.75;;;3.30;;
13147;SDS011;6639;50.956;4.242;2023-03-15T04:26:07;4.35;;;3.20;;
13147;SDS011;6639;50.956;4.242;2023-03-15T04:28:35;4.47;;;3.50;;
13147;SDS011;6639;50.956;4.242;2023-03-15T04:31:03;5.60;;;3.60;;
13147;SDS011;6639;50.956;4.242;2023-03-15T04:33:34;7.63;;;3.42;;
13147;SDS011;6639;50.956;4.242;2023-03-15T04:36:01;6.40;;;3.60;;
13147;SDS011;6639;50.956;4.242;2023-03-15T04:38:28;5.85;;;3.60;;
13147;SDS011;6639;50.956;4.242;2023-03-15T04:40:56;4.07;;;3.00;;
13147;SDS011;6639;50.956;4.242;2023-03-15T04:43:23;6.10;;;3.22;;
13147;SDS011;6639;50.956;4.242;2023-03-15T04:45:51;5.68;;;3.72;;
13147;SDS011;6639;50.956;4.242;2023-03-15T04:48:18;6.38;;;4.15;;
13147;SDS011;6639;50.956;4.242;2023-03-15T04:50:45;3.90;;;3.50;;
13147;SDS011;6639;50.956;4.242;2023-03-15T04:53:12;6.43;;;3.63;;
13147;SDS011;6639;50.956;4.242;2023-03-15T04:55:39;3.65;;;2.88;;
13147;SDS011;6639;50.956;4.242;2023-03-15T04:58:05;4.97;;;4.53;;
13147;SDS011;6639;50.956;4.242;2023-03-15T05:00:32;5.93;;;3.70;;
13147;SDS011;6639;50.956;4.242;2023-03-15T05:03:01;8.00;;;4.05;;
13147;SDS011;6639;50.956;4.242;2023-03-15T05:05:27;6.50;;;3.65;;
13147;SDS011;6639;50.956;4.242;2023-03-15T05:07:57;5.07;;;3.60;;
13147;SDS011;6639;50.956;4.242;2023-03-15T05:10:24;6.93;;;3.83;;
13147;SDS011;6639;50.956;4.242;2023-03-15T05:12:51;6.28;;;3.95;;
13147;SDS011;6639;50.956;4.242;2023-03-15T05:15:18;6.78;;;3.58;;
13147;SDS011;6639;50.956;4.242;2023-03-15T05:17:44;8.65;;;3.97;;
13147;SDS011;6639;50.956;4.242;2023-03-15T05:20:14;5.55;;;4.47;;
13147;SDS011;6639;50.956;4.242;2023-03-15T05:22:41;4.07;;;3.67;;
13147;SDS011;6639;50.956;4.242;2023-03-15T05:25:09;5.53;;;4.15;;
13147;SDS011;6639;50.956;4.242;2023-03-15T05:27:36;6.38;;;4.63;;
13147;SDS011;6639;50.956;4.242;2023-03-15T05:30:04;8.60;;;4.82;;
13147;SDS011;6639;50.956;4.242;2023-03-15T05:32:33;7.15;;;4.53;;
13147;SDS011;6639;50.956;4.242;2023-03-15T05:35:03;5.38;;;4.35;;
13147;SDS011;6639;50.956;4.242;2023-03-15T05:37:33;7.55;;;4.63;;
13147;SDS011;6639;50.956;4.242;2023-03-15T05:40:00;4.90;;;4.00;;
13147;SDS011;6639;50.956;4.242;2023-03-15T05:42:32;6.47;;;4.72;;
13147;SDS011;6639;50.956;4.242;2023-03-15T05:44:59;7.03;;;5.03;;
13147;SDS011;6639;50.956;4.242;2023-03-15T05:47:26;5.03;;;4.53;;
13147;SDS011;6639;50.956;4.242;2023-03-15T05:49:53;7.82;;;5.13;;
13147;SDS011;6639;50.956;4.242;2023-03-15T05:52:20;5.38;;;4.55;;
13147;SDS011;6639;50.956;4.242;2023-03-15T05:54:48;7.60;;;5.75;;
13147;SDS011;6639;50.956;4.242;2023-03-15T05:57:15;8.82;;;5.93;;
13147;SDS011;6639;50.956;4.242;2023-03-15T05:59:42;8.55;;;5.38;;
13147;SDS011;6639;50.956;4.242;2023-03-15T06:02:09;7.25;;;5.15;;
13147;SDS011;6639;50.956;4.242;2023-03-15T06:04:36;9.60;;;5.95;;
13147;SDS011;6639;50.956;4.242;2023-03-15T06:07:03;8.82;;;6.25;;
13147;SDS011;6639;50.956;4.242;2023-03-15T06:09:30;7.95;;;5.80;;
13147;SDS011;6639;50.956;4.242;2023-03-15T06:11:58;12.27;;;5.72;;
13147;SDS011;6639;50.956;4.242;2023-03-15T06:14:25;7.68;;;5.45;;
13147;SDS011;6639;50.956;4.242;2023-03-15T06:16:52;5.78;;;5.10;;
13147;SDS011;6639;50.956;4.242;2023-03-15T06:19:20;8.20;;;5.57;;
13147;SDS011;6639;50.956;4.242;2023-03-15T06:21:47;7.10;;;5.45;;
13147;SDS011;6639;50.956;4.242;2023-03-15T06:24:15;7.25;;;5.50;;
13147;SDS011;6639;50.956;4.242;2023-03-15T06:26:42;6.22;;;5.38;;
13147;SDS011;6639;50.956;4.242;2023-03-15T06:29:10;5.90;;;5.10;;
13147;SDS011;6639;50.956;4.242;2023-03-15T06:31:37;10.25;;;6.15;;
13147;SDS011;6639;50.956;4.242;2023-03-15T06:34:04;12.48;;;5.43;;
13147;SDS011;6639;50.956;4.242;2023-03-15T06:36:31;6.97;;;4.88;;
13147;SDS011;6639;50.956;4.242;2023-03-15T06:38:58;10.70;;;5.50;;
13147;SDS011;6639;50.956;4.242;2023-03-15T06:41:26;5.78;;;5.18;;
13147;SDS011;6639;50.956;4.242;2023-03-15T06:43:53;7.13;;;6.10;;
13147;SDS011;6639;50.956;4.242;2023-03-15T06:46:22;7.15;;;5.03;;
13147;SDS011;6639;50.956;4.242;2023-03-15T06:48:49;5.75;;;4.68;;
13147;SDS011;6639;50.956;4.242;2023-03-15T06:51:15;8.30;;;5.05;;
13147;SDS011;6639;50.956;4.242;2023-03-15T06:53:42;9.70;;;5.15;;
13147;SDS011;6639;50.956;4.242;2023-03-15T06:56:09;6.57;;;4.35;;
13147;SDS011;6639;50.956;4.242;2023-03-15T06:58:36;5.00;;;4.00;;
13147;SDS011;6639;50.956;4.242;2023-03-15T07:01:03;4.00;;;3.63;;
13147;SDS011;6639;50.956;4.242;2023-03-15T07:03:32;4.45;;;3.80;;
13147;SDS011;6639;50.956;4.242;2023-03-15T07:05:59;4.50;;;3.58;;
13147;SDS011;6639;50.956;4.242;2023-03-15T07:08:25;4.78;;;3.80;;
13147;SDS011;6639;50.956;4.242;2023-03-15T07:10:52;4.68;;;3.30;;
13147;SDS011;6639;50.956;4.242;2023-03-15T07:13:19;3.72;;;3.33;;
13147;SDS011;6639;50.956;4.242;2023-03-15T07:15:50;4.80;;;3.30;;
13147;SDS011;6639;50.956;4.242;2023-03-15T07:18:17;5.03;;;3.30;;
13147;SDS011;6639;50.956;4.242;2023-03-15T07:20:46;4.20;;;3.53;;
13147;SDS011;6639;50.956;4.242;2023-03-15T07:23:13;7.22;;;3.53;;
13147;SDS011;6639;50.956;4.242;2023-03-15T07:25:42;7.05;;;3.92;;
13147;SDS011;6639;50.956;4.242;2023-03-15T07:28:09;5.13;;;3.97;;
13147;SDS011;6639;50.956;4.242;2023-03-15T07:30:36;6.70;;;4.15;;
13147;SDS011;6639;50.956;4.242;2023-03-15T07:33:03;5.30;;;3.85;;
13147;SDS011;6639;50.956;4.242;2023-03-15T07:35:30;5.07;;;4.57;;
13147;SDS011;6639;50.956;4.242;2023-03-15T07:37:58;4.47;;;4.07;;
13147;SDS011;6639;50.956;4.242;2023-03-15T07:40:25;5.70;;;4.03;;
13147;SDS011;6639;50.956;4.242;2023-03-15T07:42:52;7.45;;;4.13;;
13147;SDS011;6639;50.956;4.242;2023-03-15T07:45:19;6.93;;;3.53;;
13147;SDS011;6639;50.956;4.242;2023-03-15T07:47:46;5.68;;;3.85;;
13147;SDS011;6639;50.956;4.242;2023-03-15T07:50:13;10.02;;;4.30;;
13147;SDS011;6639;50.956;4.242;2023-03-15T07:52:41;4.68;;;4.05;;
13147;SDS011;6639;50.956;4.242;2023-03-15T07:55:10;4.97;;;3.70;;
13147;SDS011;6639;50.956;4.242;2023-03-15T07:57:37;6.25;;;4.10;;
13147;SDS011;6639;50.956;4.242;2023-03-15T08:00:04;4.68;;;3.22;;
13147;SDS011;6639;50.956;4.242;2023-03-15T08:02:33;8.93;;;3.78;;
13147;SDS011;6639;50.956;4.242;2023-03-15T08:05:00;4.22;;;3.35;;
13147;SDS011;6639;50.956;4.242;2023-03-15T08:07:30;6.45;;;3.80;;
13147;SDS011;6639;50.956;4.242;2023-03-15T08:09:57;5.35;;;3.75;;
13147;SDS011;6639;50.956;4.242;2023-03-15T08:12:25;3.97;;;3.50;;
13147;SDS011;6639;50.956;4.242;2023-03-15T08:14:52;4.78;;;3.47;;
13147;SDS011;6639;50.956;4.242;2023-03-15T08:17:19;5.00;;;3.22;;
13147;SDS011;6639;50.956;4.242;2023-03-15T08:19:46;4.88;;;3.60;;
13147;SDS011;6639;50.956;4.242;2023-03-15T08:22:13;5.35;;;3.25;;
13147;SDS011;6639;50.956;4.242;2023-03-15T08:24:40;3.42;;;3.13;;
13147;SDS011;6639;50.956;4.242;2023-03-15T08:27:09;5.57;;;3.15;;
13147;SDS011;6639;50.956;4.242;2023-03-15T08:29:37;4.68;;;3.10;;
13147;SDS011;6639;50.956;4.242;2023-03-15T08:32:05;4.22;;;3.25;;
13147;SDS011;6639;50.956;4.242;2023-03-15T08:34:33;6.47;;;3.25;;
13147;SDS011;6639;50.956;4.242;2023-03-15T08:37:00;4.82;;;3.80;;
13147;SDS011;6639;50.956;4.242;2023-03-15T08:39:27;5.07;;;3.58;;
13147;SDS011;6639;50.956;4.242;2023-03-15T08:41:54;3.85;;;3.30;;
13147;SDS011;6639;50.956;4.242;2023-03-15T08:44:21;7.03;;;3.30;;
13147;SDS011;6639;50.956;4.242;2023-03-15T08:46:49;5.40;;;3.35;;
13147;SDS011;6639;50.956;4.242;2023-03-15T08:49:16;4.13;;;3.38;;
13147;SDS011;6639;50.956;4.242;2023-03-15T08:51:43;6.20;;;3.00;;
13147;SDS011;6639;50.956;4.242;2023-03-15T08:54:10;5.10;;;3.38;;
13147;SDS011;6639;50.956;4.242;2023-03-15T08:56:37;7.72;;;3.40;;
13147;SDS011;6639;50.956;4.242;2023-03-15T08:59:05;3.92;;;2.70;;
13147;SDS011;6639;50.956;4.242;2023-03-15T09:01:32;5.47;;;3.72;;
13147;SDS011;6639;50.956;4.242;2023-03-15T09:04:01;3.20;;;2.85;;
13147;SDS011;6639;50.956;4.242;2023-03-15T09:06:28;6.50;;;3.83;;
13147;SDS011;6639;50.956;4.242;2023-03-15T09:08:55;4.60;;;2.75;;
13147;SDS011;6639;50.956;4.242;2023-03-15T09:11:22;6.95;;;3.15;;
13147;SDS011;6639;50.956;4.242;2023-03-15T09:13:49;5.28;;;3.55;;
13147;SDS011;6639;50.956;4.242;2023-03-15T09:16:16;3.20;;;2.90;;
13147;SDS011;6639;50.956;4.242;2023-03-15T09:18:43;4.07;;;2.92;;
13147;SDS011;6639;50.956;4.242;2023-03-15T09:21:11;3.50;;;2.75;;
13147;SDS011;6639;50.956;4.242;2023-03-15T09:23:38;3.30;;;3.03;;
13147;SDS011;6639;50.956;4.242;2023-03-15T09:26:05;5.03;;;3.20;;
13147;SDS011;6639;50.956;4.242;2023-03-15T09:28:32;3.92;;;2.90;;
13147;SDS011;6639;50.956;4.242;2023-03-15T09:31:02;5.05;;;2.88;;
13147;SDS011;6639;50.956;4.242;2023-03-15T09:33:30;4.88;;;2.80;;
13147;SDS011;6639;50.956;4.242;2023-03-15T09:35:57;4.20;;;2.63;;
13147;SDS011;6639;50.956;4.242;2023-03-15T09:38:26;4.35;;;2.80;;
13147;SDS011;6639;50.956;4.242;2023-03-15T09:40:55;2.35;;;2.15;;
13147;SDS011;6639;50.956;4.242;2023-03-15T09:46:22;4.47;;;2.70;;
13147;SDS011;6639;50.956;4.242;2023-03-15T09:48:53;3.72;;;2.97;;
13147;SDS011;6639;50.956;4.242;2023-03-15T09:51:27;5.40;;;3.58;;
13147;SDS011;6639;50.956;4.242;2023-03-15T09:54:06;4.95;;;2.85;;
13147;SDS011;6639;50.956;4.242;2023-03-15T09:56:37;4.43;;;3.28;;
13147;SDS011;6639;50.956;4.242;2023-03-15T09:59:09;4.22;;;2.83;;
13147;SDS011;6639;50.956;4.242;2023-03-15T10:01:38;3.80;;;3.40;;
13147;SDS011;6639;50.956;4.242;2023-03-15T10:04:08;4.95;;;3.72;;
13147;SDS011;6639;50.956;4.242;2023-03-15T10:06:40;6.72;;;3.35;;
13147;SDS011;6639;50.956;4.242;2023-03-15T10:09:15;5.82;;;3.75;;
13147;SDS011;6639;50.956;4.242;2023-03-15T10:11:47;5.22;;;3.45;;
13147;SDS011;6639;50.956;4.242;2023-03-15T10:14:25;6.00;;;3.17;;
13147;SDS011;6639;50.956;4.242;2023-03-15T10:16:58;3.75;;;2.85;;
13147;SDS011;6639;50.956;4.242;2023-03-15T10:19:34;7.78;;;3.22;;
13147;SDS011;6639;50.956;4.242;2023-03-15T10:22:11;3.60;;;3.30;;
13147;SDS011;6639;50.956;4.242;2023-03-15T10:24:47;4.28;;;2.88;;
13147;SDS011;6639;50.956;4.242;2023-03-15T10:27:18;4.40;;;3.03;;
13147;SDS011;6639;50.956;4.242;2023-03-15T10:29:48;4.32;;;3.00;;
13147;SDS011;6639;50.956;4.242;2023-03-15T10:32:18;3.15;;;2.58;;
13147;SDS011;6639;50.956;4.242;2023-03-15T10:34:50;4.22;;;2.60;;
13147;SDS011;6639;50.956;4.242;2023-03-15T10:37:22;4.18;;;2.67;;
13147;SDS011;6639;50.956;4.242;2023-03-15T10:39:52;5.05;;;2.38;;
13147;SDS011;6639;50.956;4.242;2023-03-15T10:42:24;3.00;;;2.13;;
13147;SDS011;6639;50.956;4.242;2023-03-15T10:44:53;3.75;;;2.42;;
13147;SDS011;6639;50.956;4.242;2023-03-15T10:47:20;3.58;;;2.08;;
13147;SDS011;6639;50.956;4.242;2023-03-15T10:49:49;3.28;;;1.90;;
13147;SDS011;6639;50.956;4.242;2023-03-15T10:52:25;1.88;;;1.77;;
13147;SDS011;6639;50.956;4.242;2023-03-15T10:55:00;3.35;;;1.73;;
13147;SDS011;6639;50.956;4.242;2023-03-15T10:57:32;3.28;;;1.90;;
13147;SDS011;6639;50.956;4.242;2023-03-15T11:00:04;2.58;;;1.95;;
13147;SDS011;6639;50.956;4.242;2023-03-15T11:02:47;2.08;;;1.95;;
13147;SDS011;6639;50.956;4.242;2023-03-15T11:05:16;3.92;;;2.00;;
13147;SDS011;6639;50.956;4.242;2023-03-15T11:07:53;3.13;;;1.60;;
13147;SDS011;6639;50.956;4.242;2023-03-15T11:10:24;4.18;;;1.95;;
13147;SDS011;6639;50.956;4.242;2023-03-15T11:13:07;5.20;;;2.50;;
13147;SDS011;6639;50.956;4.242;2023-03-15T11:15:35;2.78;;;1.70;;
13147;SDS011;6639;50.956;4.242;2023-03-15T11:18:03;3.65;;;1.58;;
13147;SDS011;6639;50.956;4.242;2023-03-15T11:20:30;3.13;;;1.88;;
13147;SDS011;6639;50.956;4.242;2023-03-15T11:23:01;1.42;;;1.23;;
13147;SDS011;6639;50.956;4.242;2023-03-15T11:25:39;2.80;;;1.50;;
13147;SDS011;6639;50.956;4.242;2023-03-15T11:28:09;2.30;;;1.40;;
13147;SDS011;6639;50.956;4.242;2023-03-15T11:30:42;1.42;;;1.17;;
13147;SDS011;6639;50.956;4.242;2023-03-15T11:33:10;1.52;;;1.42;;
13147;SDS011;6639;50.956;4.242;2023-03-15T11:36:06;1.20;;;1.10;;
13147;SDS011;6639;50.956;4.242;2023-03-15T11:38:40;3.25;;;1.45;;
13147;SDS011;6639;50.956;4.242;2023-03-15T11:41:12;1.83;;;1.00;;
13147;SDS011;6639;50.956;4.242;2023-03-15T11:43:59;1.95;;;1.20;;
13147;SDS011;6639;50.956;4.242;2023-03-15T11:46:32;5.68;;;1.55;;
13147;SDS011;6639;50.956;4.242;2023-03-15T11:49:08;1.60;;;1.38;;
13147;SDS011;6639;50.956;4.242;2023-03-15T11:51:40;1.80;;;1.30;;
13147;SDS011;6639;50.956;4.242;2023-03-15T11:54:09;1.67;;;1.40;;
13147;SDS011;6639;50.956;4.242;2023-03-15T11:56:51;1.73;;;1.00;;
13147;SDS011;6639;50.956;4.242;2023-03-15T11:59:23;2.30;;;1.45;;
13147;SDS011;6639;50.956;4.242;2023-03-15T12:01:54;1.50;;;1.15;;
13147;SDS011;6639;50.956;4.242;2023-03-15T12:10:23;2.75;;;1.23;;
13147;SDS011;6639;50.956;4.242;2023-03-15T12:13:04;1.60;;;1.23;;
13147;SDS011;6639;50.956;4.242;2023-03-15T12:15:42;4.53;;;1.50;;
13147;SDS011;6639;50.956;4.242;2023-03-15T12:18:15;1.55;;;1.17;;
13147;SDS011;6639;50.956;4.242;2023-03-15T12:20:51;2.08;;;1.08;;
13147;SDS011;6639;50.956;4.242;2023-03-15T12:23:36;2.40;;;1.08;;
13147;SDS011;6639;50.956;4.242;2023-03-15T12:26:05;1.23;;;1.13;;
13147;SDS011;6639;50.956;4.242;2023-03-15T12:28:38;2.30;;;1.42;;
13147;SDS011;6639;50.956;4.242;2023-03-15T12:31:09;2.53;;;1.35;;
13147;SDS011;6639;50.956;4.242;2023-03-15T12:33:45;3.70;;;1.52;;
13147;SDS011;6639;50.956;4.242;2023-03-15T12:36:17;1.30;;;1.25;;
13147;SDS011;6639;50.956;4.242;2023-03-15T12:38:58;1.75;;;1.48;;
13147;SDS011;6639;50.956;4.242;2023-03-15T12:41:36;3.10;;;1.30;;
13147;SDS011;6639;50.956;4.242;2023-03-15T12:44:18;2.53;;;1.30;;
13147;SDS011;6639;50.956;4.242;2023-03-15T12:46:53;1.55;;;1.40;;
13147;SDS011;6639;50.956;4.242;2023-03-15T12:49:29;1.88;;;1.58;;
13147;SDS011;6639;50.956;4.242;2023-03-15T12:52:00;2.35;;;1.60;;
13147;SDS011;6639;50.956;4.242;2023-03-15T12:54:30;2.42;;;1.25;;
13147;SDS011;6639;50.956;4.242;2023-03-15T12:57:02;1.30;;;1.20;;
13147;SDS011;6639;50.956;4.242;2023-03-15T12:59:34;3.13;;;1.48;;
13147;SDS011;6639;50.956;4.242;2023-03-15T13:02:16;2.17;;;1.25;;
13147;SDS011;6639;50.956;4.242;2023-03-15T13:04:57;1.58;;;1.27;;
13147;SDS011;6639;50.956;4.242;2023-03-15T13:07:46;2.38;;;1.45;;
13147;SDS011;6639;50.956;4.242;2023-03-15T13:10:28;2.70;;;1.33;;
13147;SDS011;6639;50.956;4.242;2023-03-15T13:13:19;2.58;;;1.23;;
13147;SDS011;6639;50.956;4.242;2023-03-15T13:16:08;2.22;;;1.23;;
13147;SDS011;6639;50.956;4.242;2023-03-15T13:18:49;1.33;;;1.20;;
13147;SDS011;6639;50.956;4.242;2023-03-15T13:21:23;1.63;;;1.10;;
13147;SDS011;6639;50.956;4.242;2023-03-15T13:23:55;1.65;;;1.35;;
13147;SDS011;6639;50.956;4.242;2023-03-15T13:26:33;2.15;;;1.30;;
13147;SDS011;6639;50.956;4.242;2023-03-15T13:29:14;2.50;;;1.40;;
13147;SDS011;6639;50.956;4.242;2023-03-15T13:31:47;1.10;;;1.00;;
13147;SDS011;6639;50.956;4.242;2023-03-15T13:34:26;1.40;;;1.30;;
13147;SDS011;6639;50.956;4.242;2023-03-15T13:36:57;1.33;;;1.25;;
13147;SDS011;6639;50.956;4.242;2023-03-15T13:39:27;1.92;;;1.10;;
13147;SDS011;6639;50.956;4.242;2023-03-15T13:41:56;2.47;;;1.33;;
13147;SDS011;6639;50.956;4.242;2023-03-15T13:44:28;1.50;;;1.40;;
13147;SDS011;6639;50.956;4.242;2023-03-15T13:47:01;1.23;;;1.00;;
13147;SDS011;6639;50.956;4.242;2023-03-15T13:49:29;2.15;;;1.27;;
13147;SDS011;6639;50.956;4.242;2023-03-15T13:51:58;3.03;;;1.23;;
13147;SDS011;6639;50.956;4.242;2023-03-15T13:54:36;3.72;;;1.30;;
13147;SDS011;6639;50.956;4.242;2023-03-15T13:57:10;10.85;;;1.67;;
13147;SDS011;6639;50.956;4.242;2023-03-15T13:59:40;2.60;;;1.23;;
13147;SDS011;6639;50.956;4.242;2023-03-15T14:02:16;1.25;;;0.88;;
13147;SDS011;6639;50.956;4.242;2023-03-15T14:04:47;1.08;;;0.98;;
13147;SDS011;6639;50.956;4.242;2023-03-15T14:07:22;3.83;;;1.15;;
13147;SDS011;6639;50.956;4.242;2023-03-15T14:10:06;5.70;;;1.63;;
13147;SDS011;6639;50.956;4.242;2023-03-15T14:12:47;1.50;;;1.02;;
13147;SDS011;6639;50.956;4.242;2023-03-15T14:15:16;2.22;;;1.10;;
13147;SDS011;6639;50.956;4.242;2023-03-15T14:17:58;2.28;;;1.23;;
13147;SDS011;6639;50.956;4.242;2023-03-15T14:20:29;1.92;;;1.10;;
13147;SDS011;6639;50.956;4.242;2023-03-15T14:23:05;5.35;;;1.60;;
13147;SDS011;6639;50.956;4.242;2023-03-15T14:25:37;2.17;;;1.20;;
13147;SDS011;6639;50.956;4.242;2023-03-15T14:28:04;1.65;;;1.10;;
13147;SDS011;6639;50.956;4.242;2023-03-15T14:30:33;1.40;;;1.30;;
13147;SDS011;6639;50.956;4.242;2023-03-15T14:33:21;2.90;;;1.42;;
13147;SDS011;6639;50.956;4.242;2023-03-15T14:36:07;1.27;;;1.17;;
13147;SDS011;6639;50.956;4.242;2023-03-15T14:38:49;1.92;;;1.50;;
13147;SDS011;6639;50.956;4.242;2023-03-15T14:41:21;2.80;;;1.40;;
13147;SDS011;6639;50.956;4.242;2023-03-15T14:43:51;2.30;;;1.30;;
13147;SDS011;6639;50.956;4.242;2023-03-15T14:46:21;1.48;;;1.20;;
13147;SDS011;6639;50.956;4.242;2023-03-15T14:48:50;1.77;;;1.20;;
13147;SDS011;6639;50.956;4.242;2023-03-15T14:51:18;2.83;;;1.20;;
13147;SDS011;6639;50.956;4.242;2023-03-15T14:53:48;1.40;;;1.20;;
13147;SDS011;6639;50.956;4.242;2023-03-15T14:56:22;2.75;;;1.20;;
13147;SDS011;6639;50.956;4.242;2023-03-15T14:58:50;1.77;;;1.10;;
13147;SDS011;6639;50.956;4.242;2023-03-15T15:01:19;3.20;;;1.55;;
13147;SDS011;6639;50.956;4.242;2023-03-15T15:03:55;1.83;;;1.00;;
13147;SDS011;6639;50.956;4.242;2023-03-15T15:32:23;2.47;;;1.27;;
13147;SDS011;6639;50.956;4.242;2023-03-15T15:34:51;4.20;;;1.00;;
13147;SDS011;6639;50.956;4.242;2023-03-15T15:37:20;2.15;;;1.08;;
13147;SDS011;6639;50.956;4.242;2023-03-15T15:39:47;2.00;;;1.80;;
13147;SDS011;6639;50.956;4.242;2023-03-15T15:42:17;2.05;;;1.20;;
13147;SDS011;6639;50.956;4.242;2023-03-15T15:44:44;1.02;;;0.90;;
13147;SDS011;6639;50.956;4.242;2023-03-15T15:47:12;3.15;;;1.80;;
13147;SDS011;6639;50.956;4.242;2023-03-15T15:49:42;3.92;;;1.23;;
13147;SDS011;6639;50.956;4.242;2023-03-15T15:52:10;1.65;;;1.15;;